OJAI/AMM METAR and TAF weather

Enter ICAO airport designator
Station Type Date Time Source
OJAI METAR 2022/09/26 09:00 UTC NOAA

OJAI 260900Z 19004KT 5000 HZ NSC 32/07 Q1018 NOSIG


Station Type Date Time Source
OJAI Decoded METAR 2022/09/26 09:00 UTC NOAA

Queen Alia Airport, Jordan (OJAI) 31-40N 035-58E
Sep 26, 2022 - 05:00 AM EDT / 2022.09.26 0900 UTC
Wind: from the S (190 degrees) at 5 MPH (4 KT):0
Visibility: 3 mile(s):0
Weather: haze
Temperature: 89 F (32 C)
Dew Point: 44 F (7 C)
Relative Humidity: 21%
Pressure (altimeter): 30.06 in. Hg (1018 hPa)
ob: OJAI 260900Z 19004KT 5000 HZ NSC 32/07 Q1018 NOSIG
cycle: 9

Station Type Date Time Source
OJAI TAF 2022/09/26 06:15 UTC NOAA

TAF TAF OJAI 260432Z 2606/2712 VRB02KT 5000 HZ NSC
BECMG 2606/2608 30010KT PROB40
TEMPO 2609/2618 30018KT 4000 BLDU PROB30
TEMPO 2609/2615 05010KT

Example: see airport list